createdAt,value
2022-12-08T00:01:12.656Z,1011.386
2022-12-08T00:06:18.063Z,1011.275
2022-12-08T00:11:05.608Z,1011.208
2022-12-08T00:16:07.772Z,1011.17
2022-12-08T00:21:06.343Z,1011.09
2022-12-08T00:26:09.314Z,1011.165
2022-12-08T00:31:11.014Z,1010.963
2022-12-08T00:36:08.420Z,1010.846
2022-12-08T00:41:05.752Z,1010.858
2022-12-08T00:46:05.579Z,1010.859
2022-12-08T00:51:05.887Z,1010.894
2022-12-08T00:56:05.638Z,1010.765
2022-12-08T01:01:05.651Z,1010.753
2022-12-08T01:06:06.291Z,1010.697
2022-12-08T01:11:10.987Z,1010.622
2022-12-08T01:16:05.821Z,1010.491
2022-12-08T01:21:10.017Z,1010.491
2022-12-08T01:26:09.841Z,1010.476
2022-12-08T01:31:05.781Z,1010.442
2022-12-08T01:36:09.354Z,1010.46
2022-12-08T01:41:05.582Z,1010.411
2022-12-08T01:46:05.624Z,1010.535
2022-12-08T01:51:05.674Z,1010.385
2022-12-08T01:56:08.493Z,1010.288
2022-12-08T02:01:05.917Z,1010.309
2022-12-08T02:06:05.940Z,1010.302
2022-12-08T02:11:05.765Z,1010.218
2022-12-08T02:16:09.098Z,1010.1
2022-12-08T02:21:07.719Z,1010.111
2022-12-08T02:26:16.808Z,1010.115
2022-12-08T02:31:09.858Z,1010.164
2022-12-08T02:36:08.930Z,1010.177
2022-12-08T02:41:09.904Z,1010.087
2022-12-08T02:46:09.271Z,1009.984
2022-12-08T02:51:05.595Z,1009.928
2022-12-08T02:56:07.883Z,1009.96
2022-12-08T03:01:12.636Z,1009.94
2022-12-08T03:06:10.251Z,1009.82
2022-12-08T03:11:07.427Z,1009.685
2022-12-08T03:16:08.426Z,1009.587
2022-12-08T03:21:08.294Z,1009.535
2022-12-08T03:26:08.266Z,1009.611
2022-12-08T03:31:08.938Z,1009.341
2022-12-08T03:36:08.088Z,1009.377
2022-12-08T03:41:16.888Z,1009.53
2022-12-08T03:46:05.742Z,1009.674
2022-12-08T03:51:05.687Z,1009.547
2022-12-08T03:56:06.856Z,1009.529
2022-12-08T04:01:05.579Z,1009.511
2022-12-08T04:06:05.631Z,1009.477
2022-12-08T04:11:06.201Z,1009.323
2022-12-08T04:16:06.081Z,1009.288
2022-12-08T04:21:05.924Z,1009.273
2022-12-08T04:26:05.503Z,1009.302
2022-12-08T04:31:05.789Z,1009.264
2022-12-08T04:36:05.922Z,1009.245
2022-12-08T04:41:05.974Z,1009.199
2022-12-08T04:46:05.582Z,1009.127
2022-12-08T04:51:05.770Z,1009.122
2022-12-08T04:56:05.605Z,1009.086
2022-12-08T05:01:05.747Z,1009.017
2022-12-08T05:06:07.000Z,1009.002
2022-12-08T05:11:10.076Z,1009.036
2022-12-08T05:16:11.039Z,1009.025
2022-12-08T05:21:05.563Z,1008.998
2022-12-08T05:26:06.348Z,1008.926
2022-12-08T05:31:07.621Z,1008.944
2022-12-08T05:36:05.973Z,1008.94
2022-12-08T05:41:05.982Z,1008.948
2022-12-08T05:46:06.164Z,1008.891
2022-12-08T05:51:05.566Z,1008.869
2022-12-08T05:56:05.767Z,1008.792
2022-12-08T06:01:05.490Z,1008.748
2022-12-08T06:06:05.719Z,1008.704
2022-12-08T06:11:05.723Z,1008.731
2022-12-08T06:16:10.630Z,1008.696
2022-12-08T06:21:10.640Z,1008.641
2022-12-08T06:26:08.984Z,1008.655
2022-12-08T06:31:10.797Z,1008.68
2022-12-08T06:36:05.984Z,1008.783
2022-12-08T06:41:05.579Z,1008.874
2022-12-08T06:46:05.746Z,1008.937
2022-12-08T06:51:09.008Z,1008.914
2022-12-08T06:56:07.421Z,1008.923
2022-12-08T07:01:07.776Z,1008.875
2022-12-08T07:06:06.353Z,1008.912
2022-12-08T07:11:12.354Z,1008.901
2022-12-08T07:16:08.889Z,1008.977
2022-12-08T07:21:07.209Z,1008.959
2022-12-08T07:26:08.399Z,1008.922
2022-12-08T07:31:05.722Z,1008.988
2022-12-08T07:36:06.767Z,1008.948
2022-12-08T07:41:05.742Z,1008.959
2022-12-08T07:46:05.732Z,1008.961
2022-12-08T07:51:08.754Z,1009.014
2022-12-08T07:56:09.714Z,1008.922
2022-12-08T08:01:08.627Z,1008.894
2022-12-08T08:06:09.897Z,1008.807
2022-12-08T08:11:13.463Z,1008.833
2022-12-08T08:16:10.729Z,1008.87
2022-12-08T08:21:22.081Z,1008.901
2022-12-08T08:26:07.302Z,1008.901
2022-12-08T08:31:05.847Z,1008.93
2022-12-08T08:36:05.624Z,1009.123
2022-12-08T08:41:10.925Z,1009.209
2022-12-08T08:46:07.274Z,1009.252
2022-12-08T08:51:10.347Z,1009.036
2022-12-08T08:56:05.504Z,1008.926
2022-12-08T09:01:05.609Z,1008.863
2022-12-08T09:06:05.633Z,1008.891
2022-12-08T09:11:05.583Z,1008.865
2022-12-08T09:16:05.785Z,1008.92
2022-12-08T09:21:07.429Z,1008.898
2022-12-08T09:26:06.469Z,1008.931
2022-12-08T09:31:05.713Z,1008.922
2022-12-08T09:36:09.674Z,1008.936
2022-12-08T09:41:06.912Z,1008.956
2022-12-08T09:46:08.461Z,1008.941
2022-12-08T09:51:07.136Z,1008.952
2022-12-08T09:56:07.370Z,1008.968
2022-12-08T10:01:06.265Z,1009.061
2022-12-08T10:06:11.013Z,1009.035
2022-12-08T10:11:12.472Z,1008.924
2022-12-08T10:16:17.050Z,1008.814
2022-12-08T10:21:15.395Z,1008.753
2022-12-08T10:26:07.771Z,1008.642
2022-12-08T10:31:05.602Z,1008.619
2022-12-08T10:36:05.798Z,1008.554
2022-12-08T10:41:08.382Z,1008.634
2022-12-08T10:46:15.576Z,1008.696
2022-12-08T10:51:05.487Z,1008.627
2022-12-08T10:56:18.971Z,1008.645
2022-12-08T11:01:06.786Z,1008.679
2022-12-08T11:06:14.200Z,1008.708
2022-12-08T11:11:09.950Z,1008.808
2022-12-08T11:16:06.011Z,1008.835
2022-12-08T11:21:11.643Z,1008.69
2022-12-08T11:26:08.705Z,1008.548
2022-12-08T11:31:08.563Z,1008.385
2022-12-08T11:36:08.802Z,1008.428
2022-12-08T11:41:15.593Z,1008.296
2022-12-08T11:46:06.857Z,1008.199
2022-12-08T11:51:07.789Z,1008.201
2022-12-08T11:56:09.898Z,1008.193
2022-12-08T12:01:05.520Z,1008.102
2022-12-08T12:06:37.786Z,1008.01
2022-12-08T12:11:12.708Z,1007.977
2022-12-08T12:16:17.201Z,1008.033
2022-12-08T12:21:10.142Z,1007.934
2022-12-08T12:26:06.499Z,1008.033
2022-12-08T12:31:07.564Z,1008.05
2022-12-08T12:36:06.666Z,1008.096
2022-12-08T12:41:06.642Z,1008.058
2022-12-08T12:46:16.775Z,1008.03
2022-12-08T12:51:16.307Z,1008.007
2022-12-08T12:56:09.919Z,1008.027
2022-12-08T13:01:16.739Z,1008.018
2022-12-08T13:06:07.806Z,1007.975
2022-12-08T13:11:08.840Z,1007.941
2022-12-08T13:16:18.436Z,1007.843
2022-12-08T13:21:08.371Z,1007.827
2022-12-08T13:26:19.538Z,1007.799
2022-12-08T13:31:06.428Z,1007.826
2022-12-08T13:36:12.942Z,1007.761
2022-12-08T13:41:07.542Z,1007.594
2022-12-08T14:01:09.775Z,1007.527
2022-12-08T14:06:12.558Z,1007.561
2022-12-08T14:11:09.476Z,1007.585
2022-12-08T14:16:06.396Z,1007.567
2022-12-08T14:21:20.786Z,1007.557
2022-12-08T14:26:05.758Z,1007.499
2022-12-08T14:31:08.401Z,1007.457
2022-12-08T14:36:06.230Z,1007.476
2022-12-08T14:41:10.371Z,1007.419
2022-12-08T14:46:08.404Z,1007.472
2022-12-08T14:51:11.349Z,1007.485
2022-12-08T14:56:06.564Z,1007.448
2022-12-08T15:01:06.474Z,1007.337
2022-12-08T15:06:08.572Z,1007.342
2022-12-08T15:11:28.526Z,1007.399
2022-12-08T15:16:07.478Z,1007.461
2022-12-08T15:21:13.104Z,1007.524
2022-12-08T15:26:08.811Z,1007.552
2022-12-08T15:31:06.268Z,1007.461
2022-12-08T15:36:05.989Z,1007.553
2022-12-08T15:41:08.043Z,1007.612
2022-12-08T15:46:05.406Z,1007.683
2022-12-08T15:51:05.349Z,1007.721
2022-12-08T15:56:28.661Z,1007.652
2022-12-08T16:01:06.505Z,1007.633
2022-12-08T16:06:39.037Z,1007.613
2022-12-08T16:12:03.803Z,1007.583
2022-12-08T16:16:06.121Z,1007.623
2022-12-08T16:21:12.319Z,1007.677
2022-12-08T16:26:23.963Z,1007.645
2022-12-08T16:31:12.999Z,1007.66
2022-12-08T16:36:05.465Z,1007.648
2022-12-08T16:41:16.758Z,1007.669
2022-12-08T16:46:05.365Z,1007.626
2022-12-08T16:51:09.163Z,1007.562
2022-12-08T16:56:05.449Z,1007.651
2022-12-08T17:01:05.301Z,1007.69
2022-12-08T17:06:05.258Z,1007.689
2022-12-08T17:11:12.608Z,1007.612
2022-12-08T17:16:05.773Z,1007.53
2022-12-08T17:21:05.318Z,1007.59
2022-12-08T17:26:05.908Z,1007.667
2022-12-08T17:31:06.226Z,1007.688
2022-12-08T17:36:05.244Z,1007.721
2022-12-08T17:41:10.895Z,1007.691
2022-12-08T17:46:05.339Z,1007.655
2022-12-08T17:51:06.257Z,1007.684
2022-12-08T17:56:06.201Z,1007.716
2022-12-08T18:01:10.883Z,1007.736
2022-12-08T18:06:09.797Z,1007.758
2022-12-08T18:11:07.883Z,1007.747
2022-12-08T18:16:05.310Z,1007.888
2022-12-08T18:21:05.294Z,1007.859
2022-12-08T18:26:06.874Z,1007.827
2022-12-08T18:31:05.509Z,1007.77
2022-12-08T18:36:05.245Z,1007.784
2022-12-08T18:41:11.849Z,1007.815
2022-12-08T18:46:09.551Z,1007.8
2022-12-08T18:51:05.590Z,1007.844
2022-12-08T18:56:07.759Z,1007.904
2022-12-08T19:01:05.959Z,1007.876
2022-12-08T19:06:15.001Z,1007.876
2022-12-08T19:11:05.884Z,1007.93
2022-12-08T19:16:05.389Z,1007.969
2022-12-08T19:21:05.899Z,1008.065
2022-12-08T19:26:05.706Z,1008.094
2022-12-08T19:31:08.849Z,1008.105
2022-12-08T19:36:08.598Z,1008.129
2022-12-08T19:41:17.933Z,1008.109
2022-12-08T19:46:05.531Z,1008.187
2022-12-08T19:51:05.454Z,1008.182
2022-12-08T19:56:05.717Z,1008.179
2022-12-08T20:01:06.127Z,1008.227
2022-12-08T20:06:06.135Z,1008.188
2022-12-08T20:11:05.557Z,1008.263
2022-12-08T20:16:06.157Z,1008.326
2022-12-08T20:21:07.965Z,1008.342
2022-12-08T20:26:08.516Z,1008.433
2022-12-08T20:31:05.600Z,1008.508
2022-12-08T20:36:11.394Z,1008.509
2022-12-08T20:41:08.526Z,1008.534
2022-12-08T20:46:12.249Z,1008.593
2022-12-08T20:51:06.183Z,1008.578
2022-12-08T20:56:05.849Z,1008.62
2022-12-08T21:01:08.338Z,1008.576
2022-12-08T21:06:06.841Z,1008.581
2022-12-08T21:11:05.302Z,1008.573
2022-12-08T21:16:05.469Z,1008.606
2022-12-08T21:21:09.487Z,1008.56
2022-12-08T21:26:05.680Z,1008.615
2022-12-08T21:31:09.500Z,1008.582
2022-12-08T21:36:10.224Z,1008.603
2022-12-08T21:41:10.706Z,1008.66
2022-12-08T21:46:08.733Z,1008.667
2022-12-08T21:51:06.987Z,1008.67
2022-12-08T21:56:06.188Z,1008.708
2022-12-08T22:01:08.595Z,1008.715
2022-12-08T22:06:07.048Z,1008.719
2022-12-08T22:11:05.245Z,1008.695
2022-12-08T22:16:06.609Z,1008.745
2022-12-08T22:21:05.390Z,1008.783
2022-12-08T22:26:05.746Z,1008.799
2022-12-08T22:31:10.821Z,1008.756
2022-12-08T22:36:10.094Z,1008.743
2022-12-08T22:41:07.551Z,1008.754
2022-12-08T22:46:12.085Z,1008.8
2022-12-08T22:51:06.705Z,1008.727
2022-12-08T22:56:07.163Z,1008.652
2022-12-08T23:01:05.354Z,1008.644
2022-12-08T23:06:06.685Z,1008.597
2022-12-08T23:11:05.342Z,1008.505
2022-12-08T23:16:05.492Z,1008.475
2022-12-08T23:21:10.628Z,1008.43
2022-12-08T23:26:05.340Z,1008.433
2022-12-08T23:31:10.564Z,1008.387
2022-12-08T23:36:05.961Z,1008.41
2022-12-08T23:41:09.114Z,1008.385
2022-12-08T23:46:07.849Z,1008.379
2022-12-08T23:51:06.434Z,1008.297
2022-12-08T23:56:10.624Z,1008.299
